createdAt,value
2018-12-12T00:01:06.781Z,2.70
2018-12-12T00:03:34.342Z,2.53
2018-12-12T00:06:01.832Z,2.80
2018-12-12T00:08:29.350Z,2.97
2018-12-12T00:10:56.828Z,2.70
2018-12-12T00:13:24.285Z,2.60
2018-12-12T00:15:51.766Z,2.13
2018-12-12T00:18:19.267Z,2.70
2018-12-12T00:20:46.731Z,2.87
2018-12-12T00:23:14.191Z,2.63
2018-12-12T00:25:41.888Z,2.83
2018-12-12T00:28:09.573Z,2.20
2018-12-12T00:30:37.076Z,2.53
2018-12-12T00:33:04.565Z,2.50
2018-12-12T00:35:32.006Z,3.00
2018-12-12T00:37:59.572Z,2.83
2018-12-12T00:40:27.042Z,2.60
2018-12-12T00:42:54.515Z,2.67
2018-12-12T00:45:22.004Z,2.83
2018-12-12T00:47:49.897Z,2.53
2018-12-12T00:50:17.400Z,2.77
2018-12-12T00:52:44.876Z,2.77
2018-12-12T00:55:12.353Z,2.90
2018-12-12T00:57:39.928Z,2.33
2018-12-12T01:00:07.419Z,2.33
2018-12-12T01:02:34.885Z,2.90
2018-12-12T01:05:02.389Z,2.40
2018-12-12T01:07:29.839Z,2.83
2018-12-12T01:09:57.321Z,2.43
2018-12-12T01:12:24.798Z,2.20
2018-12-12T01:14:52.258Z,1.90
2018-12-12T01:17:19.707Z,2.77
2018-12-12T01:19:47.381Z,2.60
2018-12-12T01:22:14.836Z,2.93
2018-12-12T01:24:42.332Z,2.70
2018-12-12T01:27:09.943Z,2.97
2018-12-12T01:29:37.498Z,1.90
2018-12-12T01:32:05.025Z,2.70
2018-12-12T01:34:32.508Z,2.57
2018-12-12T01:37:00.249Z,2.40
2018-12-12T01:39:27.708Z,3.00
2018-12-12T01:41:56.335Z,2.77
2018-12-12T01:44:23.892Z,2.30
2018-12-12T01:46:51.392Z,3.03
2018-12-12T01:49:18.868Z,2.77
2018-12-12T01:51:46.353Z,2.77
2018-12-12T01:54:13.885Z,3.20
2018-12-12T01:56:41.444Z,2.63
2018-12-12T01:59:08.904Z,2.60
2018-12-12T02:01:36.394Z,2.40
2018-12-12T02:04:03.880Z,2.60
2018-12-12T02:06:31.363Z,2.80
2018-12-12T02:08:58.839Z,2.40
2018-12-12T02:11:26.339Z,2.77
2018-12-12T02:13:53.869Z,2.63
2018-12-12T02:16:21.752Z,2.90
2018-12-12T02:18:49.272Z,2.80
2018-12-12T02:21:16.760Z,2.60
2018-12-12T02:23:44.232Z,2.83
2018-12-12T02:26:11.727Z,2.90
2018-12-12T02:28:39.198Z,2.90
2018-12-12T02:31:06.680Z,3.03
2018-12-12T02:33:34.158Z,3.37
2018-12-12T02:36:01.646Z,3.10
2018-12-12T02:38:29.131Z,2.77
2018-12-12T02:41:02.624Z,2.80
2018-12-12T02:43:30.075Z,3.00
2018-12-12T02:45:57.535Z,3.20
2018-12-12T02:48:25.096Z,2.60
2018-12-12T02:50:52.573Z,2.37
2018-12-12T02:53:20.060Z,2.60
2018-12-12T02:55:47.533Z,2.63
2018-12-12T02:58:14.986Z,2.97
2018-12-12T03:00:42.468Z,2.63
2018-12-12T03:03:09.948Z,2.77
2018-12-12T03:05:37.420Z,2.53
2018-12-12T03:08:04.887Z,2.90
2018-12-12T03:10:32.397Z,2.60
2018-12-12T03:12:59.863Z,3.33
2018-12-12T03:15:28.289Z,2.83
2018-12-12T03:17:55.894Z,2.90
2018-12-12T03:20:23.359Z,3.00
2018-12-12T03:22:50.809Z,3.20
2018-12-12T03:25:18.260Z,2.63
2018-12-12T03:27:45.743Z,3.03
2018-12-12T03:30:13.206Z,3.13
2018-12-12T03:32:40.736Z,3.93
2018-12-12T03:35:08.200Z,3.00
2018-12-12T03:37:35.647Z,2.93
2018-12-12T03:40:04.160Z,2.90
2018-12-12T03:42:31.830Z,2.93
2018-12-12T03:44:59.288Z,3.30
2018-12-12T03:47:26.751Z,2.83
2018-12-12T03:49:54.208Z,3.10
2018-12-12T03:52:21.678Z,2.77
2018-12-12T03:54:49.121Z,2.70
2018-12-12T03:57:16.579Z,2.90
2018-12-12T03:59:44.045Z,3.00
2018-12-12T04:02:11.507Z,2.63
2018-12-12T04:04:38.996Z,2.80
2018-12-12T04:07:06.458Z,2.70
2018-12-12T04:09:33.910Z,3.00
2018-12-12T04:12:01.372Z,3.23
2018-12-12T04:14:28.854Z,3.33
2018-12-12T04:16:56.296Z,3.10
2018-12-12T04:19:23.778Z,2.97
2018-12-12T04:21:51.274Z,3.07
2018-12-12T04:24:18.763Z,3.07
2018-12-12T04:26:46.227Z,2.90
2018-12-12T04:29:13.718Z,3.70
2018-12-12T04:31:41.181Z,3.10
2018-12-12T04:34:08.627Z,2.90
2018-12-12T04:36:36.079Z,3.20
2018-12-12T04:39:05.685Z,3.40
2018-12-12T04:41:33.371Z,3.37
2018-12-12T04:44:00.839Z,3.50
2018-12-12T04:46:28.433Z,2.97
2018-12-12T04:48:55.962Z,3.13
2018-12-12T04:51:23.573Z,3.27
2018-12-12T04:53:51.541Z,3.57
2018-12-12T04:56:19.003Z,3.20
2018-12-12T04:58:46.487Z,3.70
2018-12-12T05:01:13.952Z,3.83
2018-12-12T05:03:41.407Z,5.10
2018-12-12T05:06:08.892Z,3.57
2018-12-12T05:08:36.344Z,3.77
2018-12-12T05:11:03.896Z,3.27
2018-12-12T05:13:31.353Z,3.07
2018-12-12T05:15:58.858Z,3.30
2018-12-12T05:18:26.296Z,3.40
2018-12-12T05:20:53.759Z,3.17
2018-12-12T05:23:21.239Z,3.70
2018-12-12T05:25:48.752Z,3.30
2018-12-12T05:28:16.226Z,3.20
2018-12-12T05:30:43.688Z,3.17
2018-12-12T05:33:11.140Z,3.30
2018-12-12T05:35:38.624Z,3.43
2018-12-12T05:38:07.011Z,3.10
2018-12-12T05:40:35.826Z,3.70
2018-12-12T05:43:03.290Z,3.90
2018-12-12T05:45:30.875Z,3.40
2018-12-12T05:47:58.521Z,3.70
2018-12-12T05:50:26.022Z,4.10
2018-12-12T05:52:53.469Z,3.63
2018-12-12T05:55:20.939Z,3.60
2018-12-12T05:57:48.430Z,3.47
2018-12-12T06:00:16.059Z,3.40
2018-12-12T06:02:43.521Z,3.80
2018-12-12T06:05:10.959Z,4.30
2018-12-12T06:07:38.408Z,4.30
2018-12-12T06:10:06.917Z,3.70
2018-12-12T06:12:34.349Z,3.80
2018-12-12T06:15:01.813Z,4.40
2018-12-12T06:17:29.274Z,3.40
2018-12-12T06:19:56.964Z,4.00
2018-12-12T06:22:24.751Z,3.33
2018-12-12T06:24:52.181Z,3.43
2018-12-12T06:27:19.654Z,2.90
2018-12-12T06:29:47.170Z,3.40
2018-12-12T06:32:14.637Z,3.60
2018-12-12T06:34:42.135Z,2.53
2018-12-12T06:37:09.697Z,1.83
2018-12-12T06:39:37.138Z,2.53
2018-12-12T06:42:04.602Z,2.90
2018-12-12T06:44:32.086Z,3.13
2018-12-12T06:46:59.572Z,3.13
2018-12-12T06:49:27.003Z,2.97
2018-12-12T06:51:54.484Z,3.10
2018-12-12T06:54:21.955Z,2.90
2018-12-12T06:56:49.440Z,3.40
2018-12-12T06:59:16.951Z,3.13
2018-12-12T07:01:44.384Z,2.90
2018-12-12T07:04:11.926Z,2.73
2018-12-12T07:06:39.400Z,2.53
2018-12-12T07:09:07.202Z,2.93
2018-12-12T07:11:34.775Z,2.50
2018-12-12T07:14:02.561Z,3.83
2018-12-12T07:16:30.185Z,5.47
2018-12-12T07:18:57.632Z,3.47
2018-12-12T07:21:25.079Z,4.30
2018-12-12T07:23:52.576Z,4.00
2018-12-12T07:26:20.056Z,2.93
2018-12-12T07:28:47.521Z,3.87
2018-12-12T07:31:14.960Z,2.77
2018-12-12T07:33:42.397Z,3.17
2018-12-12T07:36:10.520Z,3.50
2018-12-12T07:38:37.960Z,3.43
2018-12-12T07:41:05.439Z,5.77
2018-12-12T07:43:32.896Z,3.50
2018-12-12T07:46:00.351Z,2.90
2018-12-12T07:48:27.900Z,3.20
2018-12-12T07:50:55.406Z,3.13
2018-12-12T07:53:22.892Z,3.23
2018-12-12T07:55:50.381Z,2.90
2018-12-12T07:58:17.843Z,3.20
2018-12-12T08:00:45.311Z,3.50
2018-12-12T08:03:12.783Z,3.00
2018-12-12T08:05:40.259Z,3.50
2018-12-12T08:08:07.872Z,3.30
2018-12-12T08:10:35.314Z,3.77
2018-12-12T08:13:02.817Z,3.30
2018-12-12T08:15:30.294Z,3.00
2018-12-12T08:17:57.768Z,3.00
2018-12-12T08:20:25.229Z,3.63
2018-12-12T08:22:53.283Z,3.27
2018-12-12T08:25:21.000Z,3.03
2018-12-12T08:27:48.424Z,3.20
2018-12-12T08:30:15.882Z,3.20
2018-12-12T08:32:43.339Z,3.40
2018-12-12T08:35:10.808Z,3.07
2018-12-12T08:37:38.275Z,3.27
2018-12-12T08:40:07.692Z,2.60
2018-12-12T08:42:36.163Z,2.23
2018-12-12T08:45:04.346Z,3.20
2018-12-12T08:47:31.816Z,3.00
2018-12-12T08:49:59.262Z,2.70
2018-12-12T08:52:26.695Z,2.83
2018-12-12T08:54:54.169Z,3.00
2018-12-12T08:57:22.167Z,3.40
2018-12-12T08:59:49.635Z,2.60
2018-12-12T09:02:17.124Z,2.97
2018-12-12T09:04:44.584Z,2.80
2018-12-12T09:07:12.044Z,3.20
2018-12-12T09:09:39.547Z,1.40
2018-12-12T09:12:07.012Z,2.80
2018-12-12T09:14:34.507Z,2.97
2018-12-12T09:17:02.080Z,3.07
2018-12-12T09:19:29.585Z,3.40
2018-12-12T09:21:57.072Z,3.57
2018-12-12T09:24:24.539Z,4.00
2018-12-12T09:26:52.005Z,3.90
2018-12-12T09:29:19.468Z,3.50
2018-12-12T09:31:46.961Z,3.47
2018-12-12T09:34:14.428Z,3.53
2018-12-12T09:36:41.896Z,2.37
2018-12-12T09:39:09.355Z,3.37
2018-12-12T09:41:36.844Z,3.67
2018-12-12T09:44:04.325Z,2.43
2018-12-12T09:46:31.874Z,3.90
2018-12-12T09:48:59.316Z,4.13
2018-12-12T09:51:26.764Z,4.13
2018-12-12T09:53:54.996Z,4.17
2018-12-12T09:56:22.529Z,5.17
2018-12-12T09:58:50.023Z,3.53
2018-12-12T10:01:17.543Z,3.80
2018-12-12T10:03:45.017Z,3.90
2018-12-12T10:06:12.463Z,4.10
2018-12-12T10:08:39.936Z,4.37
2018-12-12T10:11:07.416Z,2.33
2018-12-12T10:13:34.880Z,4.00
2018-12-12T10:16:02.400Z,2.50
2018-12-12T10:18:29.899Z,4.63
2018-12-12T10:20:57.379Z,4.83
2018-12-12T10:23:24.819Z,2.20
2018-12-12T10:25:52.259Z,5.10
2018-12-12T10:28:19.700Z,4.60
2018-12-12T10:30:47.203Z,5.50
2018-12-12T10:33:14.661Z,5.37
2018-12-12T10:35:42.099Z,4.77
2018-12-12T10:38:09.540Z,4.90
2018-12-12T10:40:37.023Z,4.23
2018-12-12T10:43:04.604Z,4.20
2018-12-12T10:45:32.027Z,5.10
2018-12-12T10:47:59.571Z,5.10
2018-12-12T10:50:27.040Z,3.13
2018-12-12T10:52:54.514Z,5.03
2018-12-12T10:55:21.981Z,4.70
2018-12-12T10:57:49.439Z,5.33
2018-12-12T11:00:16.895Z,5.17
2018-12-12T11:02:50.216Z,5.80
2018-12-12T11:05:17.828Z,5.50
2018-12-12T11:07:45.308Z,5.47
2018-12-12T11:10:12.804Z,3.37
2018-12-12T11:12:40.314Z,4.23
2018-12-12T11:15:07.778Z,4.83
2018-12-12T11:17:35.219Z,5.53
2018-12-12T11:20:02.684Z,4.93
2018-12-12T11:22:30.136Z,5.50
2018-12-12T11:24:57.616Z,5.33
2018-12-12T11:27:25.225Z,5.47
2018-12-12T11:29:52.720Z,5.53
2018-12-12T11:32:20.174Z,5.80
2018-12-12T11:34:47.627Z,6.20
2018-12-12T11:37:15.087Z,5.17
2018-12-12T11:39:42.528Z,5.53
2018-12-12T11:42:10.010Z,6.17
2018-12-12T11:44:37.455Z,6.10
2018-12-12T11:47:05.165Z,5.63
2018-12-12T11:49:32.593Z,5.37
2018-12-12T11:52:00.070Z,1.70
2018-12-12T11:54:27.680Z,5.63
2018-12-12T11:59:29.244Z,5.10
2018-12-12T12:01:56.670Z,5.97
2018-12-12T12:04:24.125Z,5.70
2018-12-12T12:06:51.579Z,8.80
2018-12-12T12:09:19.020Z,5.40
2018-12-12T12:11:46.479Z,5.60
2018-12-12T12:14:14.030Z,5.80
2018-12-12T12:16:41.480Z,5.53
2018-12-12T12:19:08.931Z,5.40
2018-12-12T12:21:36.417Z,5.27
2018-12-12T12:24:03.946Z,5.20
2018-12-12T12:26:31.629Z,5.60
2018-12-12T12:28:59.293Z,4.80
2018-12-12T12:31:26.950Z,5.93
2018-12-12T12:33:54.419Z,5.47
2018-12-12T12:36:21.891Z,4.80
2018-12-12T12:38:49.391Z,4.83
2018-12-12T12:41:16.847Z,4.67
2018-12-12T12:43:44.290Z,4.63
2018-12-12T12:46:11.795Z,5.67
2018-12-12T12:48:40.326Z,4.70
2018-12-12T12:51:08.056Z,4.17
2018-12-12T12:53:35.512Z,4.80
2018-12-12T12:56:03.091Z,4.10
2018-12-12T12:58:30.545Z,3.57
2018-12-12T13:00:58.003Z,3.63
2018-12-12T13:03:25.862Z,3.63
2018-12-12T13:05:53.338Z,7.20
2018-12-12T13:08:23.371Z,4.07
2018-12-12T13:10:51.193Z,4.20
2018-12-12T13:13:19.331Z,4.17
2018-12-12T13:15:47.322Z,4.33
2018-12-12T13:18:14.998Z,4.33
2018-12-12T13:20:42.479Z,3.93
2018-12-12T13:23:09.965Z,4.03
2018-12-12T13:25:37.461Z,3.57
2018-12-12T13:28:04.966Z,4.57
2018-12-12T13:30:33.171Z,3.77
2018-12-12T13:33:00.657Z,3.50
2018-12-12T13:35:28.560Z,3.17
2018-12-12T13:37:56.100Z,3.20
2018-12-12T13:40:23.548Z,3.40
2018-12-12T13:42:50.988Z,3.63
2018-12-12T13:45:18.483Z,3.63
2018-12-12T13:47:45.988Z,3.53
2018-12-12T13:50:13.533Z,3.77
2018-12-12T13:52:40.997Z,3.53
2018-12-12T13:55:08.585Z,3.83
2018-12-12T13:57:36.012Z,3.67
2018-12-12T14:00:04.074Z,3.97
2018-12-12T14:02:31.600Z,3.70
2018-12-12T14:04:59.133Z,3.93
2018-12-12T14:07:27.614Z,3.50
2018-12-12T14:09:55.193Z,3.50
2018-12-12T14:12:22.977Z,4.33
2018-12-12T14:14:50.515Z,4.07
2018-12-12T14:17:18.000Z,3.70
2018-12-12T14:19:45.489Z,5.00
2018-12-12T14:22:13.011Z,5.20
2018-12-12T14:24:40.499Z,4.07
2018-12-12T14:27:07.966Z,4.83
2018-12-12T14:29:35.578Z,4.27
2018-12-12T14:32:03.098Z,4.17
2018-12-12T14:34:30.584Z,4.30
2018-12-12T14:36:58.079Z,4.30
2018-12-12T14:39:25.541Z,4.60
2018-12-12T14:41:52.989Z,4.90
2018-12-12T14:44:20.449Z,4.93
2018-12-12T14:46:47.916Z,4.80
2018-12-12T14:49:15.454Z,4.57
2018-12-12T14:51:42.917Z,4.80
2018-12-12T14:54:10.686Z,5.57
2018-12-12T14:56:38.179Z,4.30
2018-12-12T14:59:05.643Z,4.83
2018-12-12T15:01:33.131Z,4.57
2018-12-12T15:04:00.639Z,4.10
2018-12-12T15:06:28.231Z,4.13
2018-12-12T15:08:56.183Z,3.77
2018-12-12T15:11:23.784Z,3.87
2018-12-12T15:13:52.131Z,3.97
2018-12-12T15:16:19.787Z,4.27
2018-12-12T15:18:47.236Z,4.40
2018-12-12T15:21:14.750Z,4.10
2018-12-12T15:23:42.250Z,4.07
2018-12-12T15:26:09.747Z,3.73
2018-12-12T15:28:38.121Z,4.53
2018-12-12T15:31:05.614Z,4.13
2018-12-12T15:33:33.076Z,3.23
2018-12-12T15:36:00.571Z,3.60
2018-12-12T15:38:28.024Z,3.83
2018-12-12T15:40:55.497Z,4.17
2018-12-12T15:43:22.961Z,4.43
2018-12-12T15:45:50.449Z,4.67
2018-12-12T15:48:17.929Z,4.03
2018-12-12T15:50:45.380Z,3.90
2018-12-12T15:53:12.823Z,3.63
2018-12-12T15:55:40.335Z,3.53
2018-12-12T15:58:07.839Z,4.00
2018-12-12T16:00:35.512Z,4.17
2018-12-12T16:03:02.979Z,5.20
2018-12-12T16:05:30.456Z,4.17
2018-12-12T16:07:57.887Z,3.90
2018-12-12T16:10:25.354Z,4.60
2018-12-12T16:12:52.888Z,3.83
2018-12-12T16:15:20.336Z,4.97
2018-12-12T16:17:48.494Z,5.90
2018-12-12T16:20:15.951Z,7.73
2018-12-12T16:22:43.432Z,4.43
2018-12-12T16:25:10.898Z,4.43
2018-12-12T16:27:38.342Z,4.00
2018-12-12T16:30:06.633Z,4.70
2018-12-12T16:32:34.162Z,3.00
2018-12-12T16:35:01.722Z,3.70
2018-12-12T16:37:29.292Z,3.93
2018-12-12T16:39:56.737Z,4.10
2018-12-12T16:42:24.368Z,4.47
2018-12-12T16:44:51.978Z,3.90
2018-12-12T16:47:19.401Z,4.03
2018-12-12T16:49:46.919Z,2.30
2018-12-12T16:52:14.419Z,4.13
2018-12-12T16:54:41.976Z,4.23
2018-12-12T16:57:09.534Z,4.30
2018-12-12T16:59:36.983Z,3.60
2018-12-12T17:02:06.166Z,1.87
2018-12-12T17:04:33.700Z,4.70
2018-12-12T17:07:01.172Z,4.17
2018-12-12T17:09:28.620Z,3.90
2018-12-12T17:11:56.089Z,5.10
2018-12-12T17:14:25.555Z,5.10
2018-12-12T17:16:53.005Z,4.30
2018-12-12T17:19:20.462Z,4.10
2018-12-12T17:21:48.046Z,5.00
2018-12-12T17:24:15.495Z,4.37
2018-12-12T17:26:42.963Z,4.93
2018-12-12T17:29:10.435Z,3.00
2018-12-12T17:31:37.923Z,3.97
2018-12-12T17:34:05.409Z,4.33
2018-12-12T17:36:32.883Z,3.90
2018-12-12T17:39:00.331Z,4.83
2018-12-12T17:41:27.948Z,4.17
2018-12-12T17:43:55.516Z,4.60
2018-12-12T17:46:23.139Z,4.80
2018-12-12T17:48:50.683Z,5.43
2018-12-12T17:51:18.111Z,4.80
2018-12-12T17:53:45.613Z,5.03
2018-12-12T17:56:13.158Z,5.03
2018-12-12T17:58:40.679Z,4.50
2018-12-12T18:01:08.220Z,8.03
2018-12-12T18:03:36.043Z,5.03
2018-12-12T18:06:03.642Z,2.60
2018-12-12T18:08:31.155Z,4.90
2018-12-12T18:10:58.628Z,4.00
2018-12-12T18:13:26.119Z,4.63
2018-12-12T18:15:53.622Z,3.83
2018-12-12T18:18:21.191Z,3.83
2018-12-12T18:20:48.868Z,4.27
2018-12-12T18:23:16.408Z,4.03
2018-12-12T18:25:44.055Z,3.10
2018-12-12T18:28:11.819Z,4.20
2018-12-12T18:30:39.283Z,4.17
2018-12-12T18:33:06.767Z,2.50
2018-12-12T18:35:34.426Z,4.20
2018-12-12T18:38:01.890Z,1.97
2018-12-12T18:40:29.926Z,2.10
2018-12-12T18:42:57.363Z,3.80
2018-12-12T18:45:40.432Z,4.40
2018-12-12T18:48:08.813Z,2.10
2018-12-12T18:50:36.374Z,4.33
2018-12-12T18:53:03.859Z,4.83
2018-12-12T18:55:31.381Z,4.90
2018-12-12T18:57:59.278Z,4.30
2018-12-12T19:00:26.841Z,2.77
2018-12-12T19:02:54.306Z,4.20
2018-12-12T19:05:28.117Z,3.80
2018-12-12T19:07:52.078Z,4.20
2018-12-12T19:10:19.660Z,3.93
2018-12-12T19:12:47.122Z,4.33
2018-12-12T19:15:14.616Z,3.87
2018-12-12T19:17:42.127Z,3.73
2018-12-12T19:20:10.132Z,4.60
2018-12-12T19:22:37.624Z,4.50
2018-12-12T19:25:05.210Z,4.47
2018-12-12T19:27:32.659Z,4.70
2018-12-12T19:30:00.145Z,4.00
2018-12-12T19:32:27.717Z,4.50
2018-12-12T19:34:55.213Z,4.33
2018-12-12T19:37:22.714Z,3.77
2018-12-12T19:39:50.228Z,4.53
2018-12-12T19:42:17.744Z,4.53
2018-12-12T19:44:45.233Z,4.60
2018-12-12T19:47:12.697Z,4.30
2018-12-12T19:49:40.152Z,5.17
2018-12-12T19:52:07.964Z,4.67
2018-12-12T19:54:35.414Z,5.30
2018-12-12T19:57:02.860Z,4.40
2018-12-12T19:59:30.308Z,5.60
2018-12-12T20:01:57.771Z,4.80
2018-12-12T20:04:25.238Z,4.93
2018-12-12T20:06:52.698Z,5.00
2018-12-12T20:09:20.183Z,5.40
2018-12-12T20:11:47.688Z,5.43
2018-12-12T20:14:15.664Z,5.57
2018-12-12T20:16:43.124Z,5.13
2018-12-12T20:19:10.602Z,5.10
2018-12-12T20:21:38.082Z,5.40
2018-12-12T20:24:05.560Z,4.90
2018-12-12T20:26:33.000Z,5.10
2018-12-12T20:29:00.447Z,5.53
2018-12-12T20:31:28.002Z,4.80
2018-12-12T20:33:55.456Z,5.73
2018-12-12T20:36:22.894Z,5.40
2018-12-12T20:38:50.379Z,8.00
2018-12-12T20:41:17.979Z,6.07
2018-12-12T20:43:45.463Z,5.77
2018-12-12T20:46:13.006Z,7.50
2018-12-12T20:48:40.499Z,5.67
2018-12-12T20:51:07.955Z,6.10
2018-12-12T20:53:35.458Z,6.23
2018-12-12T20:56:03.551Z,6.37
2018-12-12T20:58:31.022Z,6.70
2018-12-12T21:00:58.459Z,5.87
2018-12-12T21:03:26.740Z,6.40
2018-12-12T21:05:54.659Z,5.90
2018-12-12T21:08:22.387Z,5.60
2018-12-12T21:10:49.899Z,5.83
2018-12-12T21:13:17.404Z,5.57
2018-12-12T21:15:46.803Z,5.17
2018-12-12T21:18:14.516Z,5.07
2018-12-12T21:20:41.963Z,5.17
2018-12-12T21:23:09.459Z,5.07
2018-12-12T21:25:37.119Z,4.47
2018-12-12T21:28:04.636Z,5.67
2018-12-12T21:30:32.124Z,5.23
2018-12-12T21:32:59.589Z,5.43
2018-12-12T21:35:27.039Z,4.70
2018-12-12T21:37:54.502Z,5.10
2018-12-12T21:40:21.983Z,4.13
2018-12-12T21:42:49.499Z,4.10
2018-12-12T21:45:16.971Z,4.63
2018-12-12T21:47:44.435Z,4.57
2018-12-12T21:50:11.910Z,4.57
2018-12-12T21:52:39.388Z,4.00
2018-12-12T21:55:06.857Z,4.03
2018-12-12T21:57:34.339Z,4.80
2018-12-12T22:00:01.777Z,2.17
2018-12-12T22:02:29.239Z,3.60
2018-12-12T22:04:56.709Z,3.60
2018-12-12T22:07:24.168Z,3.27
2018-12-12T22:09:51.603Z,2.67
2018-12-12T22:12:19.055Z,2.47
2018-12-12T22:14:46.506Z,2.83
2018-12-12T22:17:13.968Z,2.70
2018-12-12T22:19:41.427Z,2.80
2018-12-12T22:22:08.955Z,1.80
2018-12-12T22:24:36.392Z,2.60
2018-12-12T22:27:03.867Z,2.13
2018-12-12T22:29:31.304Z,2.40
2018-12-12T22:31:58.810Z,1.80
2018-12-12T22:34:26.329Z,2.00
2018-12-12T22:36:53.775Z,1.77
2018-12-12T22:39:21.299Z,1.70
2018-12-12T22:41:48.763Z,2.33
2018-12-12T22:44:16.213Z,2.17
2018-12-12T22:46:43.707Z,1.83
2018-12-12T22:49:11.148Z,1.83
2018-12-12T22:51:38.587Z,1.70
2018-12-12T22:54:06.025Z,1.70
2018-12-12T22:56:33.483Z,1.60
2018-12-12T22:59:00.943Z,1.90
2018-12-12T23:01:28.399Z,1.60
2018-12-12T23:03:55.843Z,1.93
2018-12-12T23:06:23.318Z,1.63
2018-12-12T23:08:50.883Z,1.57
2018-12-12T23:11:18.331Z,2.13
2018-12-12T23:13:45.789Z,1.87
2018-12-12T23:16:13.284Z,2.07
2018-12-12T23:18:40.775Z,2.00
2018-12-12T23:21:08.333Z,1.70
2018-12-12T23:23:35.810Z,3.17
2018-12-12T23:26:03.290Z,1.63
2018-12-12T23:28:30.774Z,2.20
2018-12-12T23:30:58.222Z,2.20
2018-12-12T23:33:25.686Z,1.90
2018-12-12T23:35:53.140Z,1.83
2018-12-12T23:38:21.122Z,6.47
2018-12-12T23:40:48.608Z,2.20
2018-12-12T23:43:16.116Z,1.93
2018-12-12T23:45:43.544Z,1.60
2018-12-12T23:48:11.057Z,2.00
2018-12-12T23:50:38.730Z,1.73
2018-12-12T23:53:06.163Z,1.63
2018-12-12T23:55:34.463Z,2.20
2018-12-12T23:58:01.926Z,1.90
